0F2 weather

Bowie Municipal Airport
Bowie, Texas, United States

Public forecast

Using degrees Fahrenheit for public forecast. Weather courtesy of forecast.io.

Current aviation weather report (METAR) for Bowie Municipal Airport

Retrieved 2020/07/07 01:35 UTC (1 hour ago):

K0F2 070135Z AUTO 02003KT 10SM CLR 27/25 A2992 RMK AO2 T02700252

Closest aviation forecast (TAF) to Bowie Municipal Airport

Closest forecast is Sheppard Air Force Base-Wichita Falls Municipal Airport, 42.6 nm (79.0 km) WNW. Retrieved 2020-07-07 00:22 UTC (2 hours ago):

TAF KSPS 062320Z 0700/0724 11006KT P6SM SCT050 BKN250 FM071500 12010KT P6SM BKN050